Time;durP1;ratioP1;P1;durP2;ratioP2;P2;SDS_P1;SDS_P2;PMS_P1;PMS_P2;Temp;Humidity;BMP_temperature;BMP_pressure;BME280_temperature;BME280_humidity;BME280_pressure;Samples;Min_cycle;Max_cycle;Signal;HPM_P1;HPM_P2
2023/09/14 00:01:01;;;;;;;23.50;11.00;;;;;;;24.55;37.74;100036.61;108220;1251;60421;-66
2023/09/14 00:03:29;;;;;;;23.30;11.50;;;;;;;24.45;37.83;100031.84;108136;1251;74135;-66
2023/09/14 00:05:57;;;;;;;23.80;12.00;;;;;;;24.25;38.13;100030.20;108158;1251;70359;-65
2023/09/14 00:08:27;;;;;;;24.40;10.60;;;;;;;24.15;38.35;100036.27;108177;1253;70346;-67
2023/09/14 00:10:55;;;;;;;;;;;;;;;24.26;38.14;100032.40;108141;1252;60287;-66
2023/09/14 00:13:23;;;;;;;30.10;10.70;;;;;;;24.14;38.52;100037.70;108156;1251;60271;-66
2023/09/14 00:15:51;;;;;;;29.10;11.60;;;;;;;23.94;38.90;100041.57;108186;1251;72579;-65
2023/09/14 00:18:19;;;;;;;20.40;11.60;;;;;;;24.14;38.61;100034.48;108264;1251;70630;-66
2023/09/14 00:20:48;;;;;;;25.50;11.30;;;;;;;24.13;38.60;100034.41;108192;1251;71264;-66
2023/09/14 00:23:15;;;;;;;19.60;10.80;;;;;;;23.88;39.13;100029.57;108229;1251;60419;-64
2023/09/14 00:25:42;;;;;;;21.60;12.20;;;;;;;24.03;39.02;100027.58;108283;1253;60265;-66
2023/09/14 00:28:10;;;;;;;20.10;11.20;;;;;;;24.26;38.48;100020.73;108107;1253;73775;-65
2023/09/14 00:30:38;;;;;;;18.70;10.40;;;;;;;24.16;38.77;100013.77;108080;1253;68399;-65
2023/09/14 00:33:05;;;;;;;23.00;11.30;;;;;;;24.16;38.92;100015.61;108089;1253;71175;-65
2023/09/14 00:35:33;;;;;;;25.80;11.60;;;;;;;24.23;38.71;100009.53;108110;1253;60205;-64
2023/09/14 00:38:00;;;;;;;22.10;11.20;;;;;;;23.92;39.32;100007.17;108066;1253;60304;-65
2023/09/14 00:40:28;;;;;;;21.80;10.90;;;;;;;23.79;39.68;100002.08;108112;1253;72382;-64
2023/09/14 00:42:56;;;;;;;21.70;11.40;;;;;;;23.85;39.66;100002.03;108043;1253;69020;-66
2023/09/14 00:45:23;;;;;;;22.20;11.40;;;;;;;24.11;39.11;100003.69;108116;1253;73088;-66
2023/09/14 00:47:58;;;;;;;18.10;10.60;;;;;;;24.25;38.85;100005.80;108148;1253;61705;-65
2023/09/14 00:50:26;;;;;;;22.10;10.80;;;;;;;24.31;38.70;100000.67;108133;1253;61260;-65
2023/09/14 00:53:14;;;;;;;22.30;11.80;;;;;;;24.34;38.78;100001.86;108103;1253;74320;-65
2023/09/14 00:55:43;;;;;;;26.30;12.00;;;;;;;24.14;39.23;99999.08;108014;1252;70125;-65
2023/09/14 00:58:15;;;;;;;19.40;11.10;;;;;;;24.29;39.04;99993.53;107800;1254;72445;-63
2023/09/14 01:00:44;;;;;;;23.50;10.70;;;;;;;24.22;39.14;99983.79;108025;1253;61680;-63
2023/09/14 01:03:13;;;;;;;30.60;11.80;;;;;;;24.24;39.20;99981.45;108153;1252;60477;-67
2023/09/14 01:05:43;;;;;;;22.40;11.20;;;;;;;24.28;39.29;99979.83;108104;1252;74131;-66
2023/09/14 01:08:11;;;;;;;22.00;11.50;;;;;;;24.27;39.34;99972.73;108079;1253;69421;-65
2023/09/14 01:10:38;;;;;;;20.80;11.60;;;;;;;24.18;39.44;99974.17;108067;1253;72741;-65
2023/09/14 01:13:05;;;;;;;23.80;11.90;;;;;;;24.34;39.22;99970.08;108045;1253;61094;-65
2023/09/14 01:15:39;;;;;;;26.00;11.40;;;;;;;24.06;39.84;99974.02;107960;1253;60415;-65
2023/09/14 01:18:15;;;;;;;20.70;11.70;;;;;;;23.55;40.72;99972.21;108006;1253;73765;-66
2023/09/14 01:21:05;;;;;;;21.10;11.00;;;;;;;24.02;40.12;99973.02;108002;1253;69026;-66
2023/09/14 01:23:55;;;;;;;17.90;10.20;;;;;;;23.77;40.41;99973.38;107991;1255;72646;-66
2023/09/14 01:26:23;;;;;;;22.90;11.70;;;;;;;23.59;41.08;99974.35;108024;1254;61678;-64
2023/09/14 01:28:50;;;;;;;21.20;11.50;;;;;;;23.81;40.55;99972.15;108093;1251;60236;-65
2023/09/14 01:31:18;;;;;;;19.40;11.30;;;;;;;23.56;41.21;99981.23;108155;1251;72544;-66
2023/09/14 01:33:48;;;;;;;22.60;11.30;;;;;;;23.69;40.98;99975.64;108028;1257;70473;-66
2023/09/14 01:36:31;;;;;;;23.30;11.70;;;;;;;23.74;40.78;99975.11;108207;1254;72693;-66
2023/09/14 01:38:59;;;;;;;26.60;11.80;;;;;;;24.02;40.55;99975.52;108053;1251;60394;-66
2023/09/14 01:41:26;;;;;;;23.90;11.40;;;;;;;23.83;40.61;99980.40;108233;1251;61174;-66
2023/09/14 01:43:54;;;;;;;21.30;11.50;;;;;;;23.78;41.04;99975.63;108053;1251;74155;-65
2023/09/14 01:46:21;;;;;;;25.90;12.00;;;;;;;23.88;40.82;99974.32;108002;1251;69978;-64
2023/09/14 01:48:49;;;;;;;24.80;12.00;;;;;;;23.85;40.90;99968.02;107988;1254;71970;-65
2023/09/14 01:51:16;;;;;;;21.20;12.20;;;;;;;23.95;40.73;99964.17;108212;1251;61777;-66
2023/09/14 01:53:44;;;;;;;24.60;10.40;;;;;;;23.56;41.15;99963.34;108099;1251;60399;-67
2023/09/14 01:56:11;;;;;;;24.80;11.50;;;;;;;23.43;41.76;99961.88;108147;1251;72765;-66
2023/09/14 01:58:38;;;;;;;16.60;10.60;;;;;;;23.29;41.99;99956.69;108087;1251;69961;-67
2023/09/14 02:01:06;;;;;;;25.60;11.90;;;;;;;23.80;41.20;99958.95;108074;1251;72618;-66
2023/09/14 02:03:34;;;;;;;18.90;11.00;;;;;;;23.95;40.78;99957.16;108077;1251;60714;-68
2023/09/14 02:06:02;;;;;;;20.80;10.90;;;;;;;23.83;41.12;99956.59;108226;1251;60433;-67
2023/09/14 02:08:30;;;;;;;25.70;12.50;;;;;;;23.80;41.14;99954.52;108065;1251;74418;-65
2023/09/14 02:10:57;;;;;;;24.90;12.60;;;;;;;23.74;41.42;99948.39;108156;1251;70710;-64
2023/09/14 02:13:27;;;;;;;22.50;11.20;;;;;;;23.27;42.08;99948.85;108130;1253;71874;-65
2023/09/14 02:15:55;;;;;;;19.70;11.40;;;;;;;23.31;42.15;99949.55;108081;1251;60388;-66
2023/09/14 02:18:22;;;;;;;18.90;11.20;;;;;;;23.01;42.83;99946.13;108219;1251;60022;-65
2023/09/14 02:20:50;;;;;;;21.00;11.40;;;;;;;23.19;42.36;99949.02;108185;1251;73776;-65
2023/09/14 02:23:18;;;;;;;24.30;12.30;;;;;;;23.25;42.43;99949.39;108101;1251;69954;-66
2023/09/14 02:25:46;;;;;;;28.10;11.50;;;;;;;23.43;42.02;99951.09;108090;1253;71447;-66
2023/09/14 02:28:15;;;;;;;18.70;10.80;;;;;;;23.41;41.96;99946.17;108036;1253;61787;-66
2023/09/14 02:30:42;;;;;;;21.50;10.60;;;;;;;22.91;43.00;99944.52;108093;1257;60314;-66
2023/09/14 02:33:10;;;;;;;21.90;12.00;;;;;;;22.91;43.01;99941.80;108092;1252;75957;-67
2023/09/14 02:35:40;;;;;;;19.50;11.40;;;;;;;22.78;43.32;99940.41;108281;1253;68696;-66
2023/09/14 02:38:08;;;;;;;21.40;11.40;;;;;;;23.00;42.86;99935.02;108076;1253;72627;-65
2023/09/14 02:40:36;;;;;;;23.70;12.30;;;;;;;23.05;42.88;99935.84;108210;1253;60596;-67
2023/09/14 02:43:03;;;;;;;25.70;11.70;;;;;;;23.25;42.46;99942.10;108091;1253;60299;-66
2023/09/14 02:45:31;;;;;;;22.70;11.70;;;;;;;23.27;42.49;99944.08;108098;1257;75319;-66
2023/09/14 02:47:58;;;;;;;25.00;11.90;;;;;;;23.06;42.60;99938.59;108085;1253;70061;-67
2023/09/14 02:50:25;;;;;;;19.80;11.00;;;;;;;22.82;43.17;99937.05;108081;1253;72715;-64
2023/09/14 02:52:53;;;;;;;24.80;11.60;;;;;;;22.60;43.69;99935.79;108074;1256;61662;-65
2023/09/14 02:55:20;;;;;;;18.10;10.70;;;;;;;22.81;43.13;99935.66;108024;1252;60388;-66
2023/09/14 02:57:48;;;;;;;25.90;11.90;;;;;;;22.80;42.93;99935.29;108007;1253;73886;-67
2023/09/14 03:00:17;;;;;;;19.80;11.20;;;;;;;22.44;43.73;99939.39;108301;1253;70055;-66
2023/09/14 03:02:45;;;;;;;23.60;12.00;;;;;;;22.43;43.75;99942.33;108098;1254;72805;-66
2023/09/14 03:05:13;;;;;;;24.60;11.50;;;;;;;22.47;43.59;99944.38;108117;1253;60425;-66
2023/09/14 03:07:40;;;;;;;25.20;12.20;;;;;;;22.32;43.75;99939.72;108084;1252;60298;-67
2023/09/14 03:10:09;;;;;;;31.20;11.30;;;;;;;22.28;44.06;99942.41;108146;1252;72994;-67
2023/09/14 03:12:36;;;;;;;20.10;11.30;;;;;;;22.39;43.71;99949.70;108058;1252;68888;-66
2023/09/14 03:15:05;;;;;;;24.50;12.40;;;;;;;22.36;43.87;99957.08;108032;1254;70541;-66
2023/09/14 03:17:33;;;;;;;23.60;13.10;;;;;;;22.42;43.56;99952.97;108108;1254;61647;-67
2023/09/14 03:20:00;;;;;;;22.50;12.50;;;;;;;22.43;43.45;99957.73;108019;1253;60297;-66
2023/09/14 03:22:28;;;;;;;24.00;12.50;;;;;;;22.27;43.84;99957.36;108105;1253;72329;-66
2023/09/14 03:24:55;;;;;;;21.30;11.70;;;;;;;22.19;43.95;99960.55;108107;1252;69319;-66
2023/09/14 03:27:23;;;;;;;20.20;11.10;;;;;;;22.29;43.72;99958.48;108286;1251;71195;-65
2023/09/14 03:29:51;;;;;;;25.30;12.70;;;;;;;22.20;43.79;99959.56;108206;1252;61699;-64
2023/09/14 03:32:18;;;;;;;22.90;11.90;;;;;;;22.06;44.21;99962.07;108184;1251;59472;-65
2023/09/14 03:34:45;;;;;;;22.90;11.40;;;;;;;21.76;44.80;99962.35;108206;1251;73822;-66
2023/09/14 03:37:13;;;;;;;21.50;11.70;;;;;;;21.87;44.54;99958.36;108186;1251;69522;-65
2023/09/14 03:39:45;;;;;;;22.70;11.70;;;;;;;21.85;44.83;99959.60;108210;1251;70863;-64
2023/09/14 03:42:14;;;;;;;21.00;11.90;;;;;;;21.90;44.45;99961.80;108226;1251;60774;-66
2023/09/14 03:44:41;;;;;;;24.00;13.20;;;;;;;21.89;44.46;99959.93;108218;1251;60311;-65
2023/09/14 03:48:49;;;;;;;22.60;12.70;;;;;;;19.91;49.39;99965.23;106212;1289;613873;-95
2023/09/14 03:51:24;;;;;;;26.10;13.10;;;;;;;20.91;47.15;99962.36;108524;1263;61951;-95
2023/09/14 03:53:57;;;;;;;22.80;12.20;;;;;;;21.23;46.50;99964.86;108364;1257;59190;-94
2023/09/14 03:56:32;;;;;;;19.90;12.00;;;;;;;21.37;45.99;99957.94;108369;1257;70958;-95
2023/09/14 03:59:04;;;;;;;25.90;13.70;;;;;;;21.49;45.74;99956.62;108436;1257;68938;-94
2023/09/14 04:01:54;;;;;;;;;;;;;;;21.58;45.66;99961.39;107585;1254;1448181;-95
2023/09/14 04:04:43;;;;;;;26.70;12.30;;;;;;;21.74;45.32;99970.54;108603;1254;62276;-96
2023/09/14 04:07:20;;;;;;;21.60;11.30;;;;;;;21.65;45.48;99974.50;109479;1254;58889;-96
2023/09/14 04:09:58;;;;;;;30.30;13.00;;;;;;;21.82;45.07;99972.50;109377;1254;71483;-94
2023/09/14 04:13:13;;;;;;;22.80;12.00;;;;;;;22.01;44.82;99972.63;109150;1256;68581;-95
2023/09/14 04:17:08;;;;;;;27.00;12.60;;;;;;;21.72;45.22;99972.34;109153;1256;71611;-96
2023/09/14 04:19:38;;;;;;;26.70;12.80;;;;;;;21.70;45.22;99973.39;109424;1255;59586;-95
2023/09/14 04:22:20;;;;;;;28.30;13.60;;;;;;;21.85;45.05;99969.61;109377;1256;57787;-95
2023/09/14 04:25:28;;;;;;;26.60;12.40;;;;;;;22.01;44.81;99970.57;109295;1257;72024;-95
2023/09/14 04:28:12;;;;;;;24.80;12.90;;;;;;;21.98;44.58;99976.81;109311;1256;69438;-94
2023/09/14 04:31:08;;;;;;;25.70;12.20;;;;;;;21.75;45.11;99974.05;109331;1256;71433;-93
2023/09/14 04:33:41;;;;;;;25.50;12.80;;;;;;;21.74;45.14;99973.06;109375;1255;60504;-96
2023/09/14 04:36:32;;;;;;;27.70;12.80;;;;;;;21.77;45.20;99966.00;109539;1255;58317;-95
2023/09/14 04:39:12;;;;;;;30.30;12.80;;;;;;;21.68;45.38;99970.00;109346;1257;72150;-95
2023/09/14 04:42:47;;;;;;;24.70;12.10;;;;;;;21.77;45.34;99965.30;109324;1256;69292;-96
2023/09/14 04:46:09;;;;;;;20.60;12.40;;;;;;;21.79;45.39;99968.83;109076;1257;71717;-95
2023/09/14 04:49:08;;;;;;;33.50;13.10;;;;;;;21.96;45.00;99962.34;109053;1253;61265;-94
2023/09/14 04:51:58;;;;;;;22.90;12.90;;;;;;;22.03;45.02;99969.79;109109;1254;59414;-95
2023/09/14 04:54:58;;;;;;;30.40;13.30;;;;;;;22.44;44.17;99967.33;109229;1253;72412;-95
2023/09/14 04:57:47;;;;;;;20.90;11.70;;;;;;;23.08;43.41;99964.52;109183;1255;69973;-93
2023/09/14 05:00:28;;;;;;;31.70;12.90;;;;;;;23.65;41.92;99972.89;108897;1254;72756;-95
2023/09/14 05:03:42;;;;;;;26.00;12.10;;;;;;;24.07;40.96;99968.02;108594;1254;60925;-95
2023/09/14 05:06:27;;;;;;;23.60;11.80;;;;;;;24.37;40.28;99961.02;108714;1254;59452;-95
2023/09/14 05:09:19;;;;;;;20.80;11.50;;;;;;;25.04;38.95;99955.38;108979;1254;71888;-96
2023/09/14 05:12:47;;;;;;;27.20;12.00;;;;;;;25.13;38.23;99960.30;108906;1254;70679;-95
2023/09/14 05:15:29;;;;;;;28.80;11.90;;;;;;;25.13;38.33;99962.91;108888;1254;72973;-95
2023/09/14 05:18:31;;;;;;;29.10;11.70;;;;;;;24.65;39.01;99962.29;108862;1254;61044;-95
2023/09/14 05:21:23;;;;;;;22.70;11.70;;;;;;;24.87;39.14;99959.58;109165;1254;59477;-94
2023/09/14 05:24:01;;;;;;;18.60;10.10;;;;;;;25.51;38.10;99954.30;108774;1254;71861;-94
2023/09/14 05:26:52;;;;;;;25.20;11.80;;;;;;;26.02;37.29;99955.70;108674;1254;67670;-96
2023/09/14 05:29:33;;;;;;;25.00;12.20;;;;;;;26.30;36.30;99952.27;108547;1254;72706;-96
2023/09/14 05:32:13;;;;;;;26.00;13.30;;;;;;;26.20;36.21;99959.46;108419;1257;60741;-96
2023/09/14 05:35:09;;;;;;;27.80;13.80;;;;;;;25.45;37.21;99963.73;108703;1255;59563;-95
2023/09/14 05:41:43;;;;;;;27.60;12.70;;;;;;;26.18;36.74;99944.73;108542;1256;69088;-96
2023/09/14 05:44:34;;;;;;;22.20;11.50;;;;;;;26.67;35.89;99944.17;108405;1256;71864;-96
2023/09/14 05:47:20;;;;;;;28.90;12.60;;;;;;;27.35;35.04;99943.08;108349;1256;60241;-96
2023/09/14 05:50:12;;;;;;;27.10;12.10;;;;;;;27.90;33.77;99944.03;108350;1256;59467;-96
2023/09/14 05:53:15;;;;;;;25.00;11.40;;;;;;;28.07;33.46;99946.08;108714;1255;71809;-96
2023/09/14 05:56:12;;;;;;;22.80;11.80;;;;;;;28.30;33.39;99938.24;109155;1256;71375;-95
2023/09/14 05:59:36;;;;;;;25.00;10.30;;;;;;;28.92;32.47;99944.41;108992;1256;72071;-95
2023/09/14 06:02:29;;;;;;;22.20;10.20;;;;;;;29.28;31.70;99952.87;108806;1256;61110;-96
2023/09/14 06:05:14;;;;;;;20.90;9.70;;;;;;;29.60;31.10;99945.79;108622;1256;59230;-96
2023/09/14 06:07:55;;;;;;;16.30;9.60;;;;;;;29.89;30.98;99939.21;108461;1256;72944;-96
2023/09/14 06:10:42;;;;;;;28.40;10.80;;;;;;;30.28;30.46;99931.52;108469;1256;69245;-96
2023/09/14 06:13:18;;;;;;;16.00;8.90;;;;;;;30.61;29.85;99934.37;108415;1256;71785;-96
2023/09/14 06:16:22;;;;;;;22.00;10.30;;;;;;;30.78;29.25;99937.29;108739;1253;60747;-96
2023/09/14 06:19:17;;;;;;;17.20;10.20;;;;;;;31.20;28.98;99936.16;108724;1254;60421;-95
2023/09/14 06:22:28;;;;;;;23.70;9.60;;;;;;;31.77;28.20;99940.17;108780;1254;72427;-95
2023/09/14 06:25:29;;;;;;;25.70;10.20;;;;;;;32.08;27.80;99934.48;108982;1253;71895;-95
2023/09/14 06:29:19;;;;;;;23.90;9.90;;;;;;;32.47;27.16;99941.57;108627;1259;71592;-96
2023/09/14 06:32:37;;;;;;;23.30;10.20;;;;;;;32.87;26.41;99936.08;108646;1259;59378;-96
2023/09/14 06:35:29;;;;;;;24.30;10.00;;;;;;;32.79;26.44;99938.37;108530;1260;59099;-96
2023/09/14 06:38:05;;;;;;;14.70;9.30;;;;;;;32.74;26.68;99940.50;108774;1258;72061;-95
2023/09/14 06:41:37;;;;;;;22.30;10.00;;;;;;;33.23;26.10;99948.03;109014;1260;68944;-96
2023/09/14 06:44:32;;;;;;;24.60;9.40;;;;;;;33.17;26.13;99943.66;108846;1259;71399;-95
2023/09/14 06:47:08;;;;;;;14.20;9.20;;;;;;;33.38;25.93;99943.78;108735;1260;59127;-96
2023/09/14 06:49:45;;;;;;;21.40;10.40;;;;;;;33.65;25.46;99944.01;108794;1259;58834;-95
2023/09/14 06:52:56;;;;;;;23.60;9.60;;;;;;;33.53;25.26;99938.13;108978;1260;72515;-96
2023/09/14 06:56:02;;;;;;;23.90;10.40;;;;;;;33.62;25.39;99936.23;108865;1259;68728;-96
2023/09/14 06:59:00;;;;;;;23.90;9.80;;;;;;;33.43;25.33;99935.43;109086;1253;71491;-96
2023/09/14 07:01:40;;;;;;;21.90;9.60;;;;;;;33.58;25.30;99936.05;109638;1253;59095;-94
2023/09/14 07:04:57;;;;;;;21.40;9.60;;;;;;;34.07;24.88;99935.66;109225;1253;59131;-96
2023/09/14 07:07:58;;;;;;;20.90;10.20;;;;;;;34.23;24.57;99941.37;108773;1253;64504;-96
2023/09/14 07:10:43;;;;;;;22.60;9.80;;;;;;;34.49;24.37;99934.66;108754;1254;59773;-96
2023/09/14 07:13:21;;;;;;;21.60;9.30;;;;;;;34.61;24.19;99935.44;108757;1254;62712;-96
2023/09/14 07:16:51;;;;;;;30.10;10.30;;;;;;;35.00;24.08;99943.47;108689;1254;59518;-96
2023/09/14 07:19:59;;;;;;;26.70;10.00;;;;;;;35.09;23.80;99941.59;108921;1253;59580;-96
2023/09/14 07:23:36;;;;;;;22.70;10.20;;;;;;;35.14;23.77;99937.52;109006;1253;63022;-96
2023/09/14 07:26:50;;;;;;;19.10;9.30;;;;;;;35.03;23.95;99934.77;108710;1257;60118;-96
2023/09/14 07:34:33;;;;;;;20.90;9.90;;;;;;;35.29;23.54;99925.62;109423;1256;60764;-94
2023/09/14 07:38:08;;;;;;;21.60;8.90;;;;;;;35.43;23.58;99928.61;107911;1252;78910;-68
2023/09/14 07:40:34;;;;;;;15.10;9.00;;;;;;;35.83;23.47;99931.33;107896;1257;72758;-67
2023/09/14 07:43:01;;;;;;;22.70;9.90;;;;;;;35.93;23.18;99928.56;107889;1256;61736;-67
2023/09/14 07:45:30;;;;;;;19.80;9.00;;;;;;;35.67;23.57;99930.05;107916;1256;63931;-68
2023/09/14 07:48:01;;;;;;;20.40;9.40;;;;;;;35.55;23.71;99929.49;107833;1256;59414;-68
2023/09/14 07:50:28;;;;;;;17.00;9.00;;;;;;;35.52;23.80;99927.14;107763;1257;59828;-68
2023/09/14 07:52:56;;;;;;;22.40;8.80;;;;;;;35.81;23.84;99931.38;107781;1257;64467;-67
2023/09/14 07:55:23;;;;;;;17.80;8.30;;;;;;;36.03;23.09;99924.48;107780;1256;70166;-68
2023/09/14 07:57:52;;;;;;;20.50;9.40;;;;;;;36.20;22.90;99921.65;107768;1256;63916;-68
2023/09/14 08:00:19;;;;;;;16.60;8.90;;;;;;;36.15;23.13;99922.26;107788;1260;59030;-68
2023/09/14 08:02:46;;;;;;;23.00;8.30;;;;;;;36.41;23.19;99923.16;107829;1256;59656;-68
2023/09/14 08:05:13;;;;;;;15.70;8.20;;;;;;;36.10;23.23;99919.52;107770;1256;64413;-68
2023/09/14 08:07:40;;;;;;;14.60;7.60;;;;;;;35.93;23.60;99915.40;107836;1257;61747;-67
2023/09/14 08:10:08;;;;;;;22.50;9.80;;;;;;;36.17;23.18;99912.45;107817;1256;63969;-68
2023/09/14 08:12:38;;;;;;;24.60;11.40;;;;;;;36.57;22.96;99911.43;107885;1256;59601;-68
2023/09/14 08:15:05;;;;;;;19.40;11.60;;;;;;;36.69;22.93;99914.00;107815;1256;59771;-68
2023/09/14 08:17:32;;;;;;;24.60;11.50;;;;;;;36.59;22.91;99910.23;107798;1260;64929;-68
2023/09/14 08:19:59;;;;;;;27.20;12.80;;;;;;;36.66;22.95;99903.40;107802;1256;61486;-67
2023/09/14 08:22:26;;;;;;;26.30;12.40;;;;;;;36.92;22.84;99901.95;107733;1257;63980;-68
2023/09/14 08:24:54;;;;;;;25.70;12.90;;;;;;;37.25;22.58;99903.11;107774;1256;59998;-69
2023/09/14 08:27:22;;;;;;;22.30;11.10;;;;;;;37.61;22.05;99903.66;107848;1256;59563;-67
2023/09/14 08:29:48;;;;;;;27.70;11.90;;;;;;;37.76;21.69;99903.05;107807;1256;64598;-68
2023/09/14 08:32:17;;;;;;;16.50;10.10;;;;;;;37.84;21.69;99901.64;107758;1256;61560;-69
2023/09/14 08:34:43;;;;;;;21.90;10.40;;;;;;;37.70;21.72;99895.39;107753;1256;63921;-68
2023/09/14 08:37:10;;;;;;;15.70;10.20;;;;;;;37.53;21.99;99894.14;107769;1257;59599;-67
2023/09/14 08:39:38;;;;;;;23.00;10.60;;;;;;;37.63;21.99;99895.64;107809;1256;60232;-68
2023/09/14 08:42:04;;;;;;;19.00;11.30;;;;;;;37.38;22.34;99899.21;107812;1256;65381;-68
2023/09/14 08:44:33;;;;;;;24.80;11.20;;;;;;;37.19;22.23;99903.19;107629;1257;61530;-68
2023/09/14 08:47:01;;;;;;;19.30;10.00;;;;;;;37.51;22.37;99898.05;107752;1257;63834;-68
2023/09/14 08:49:30;;;;;;;18.50;9.40;;;;;;;37.71;22.20;99897.38;107777;1258;60224;-68
2023/09/14 08:51:58;;;;;;;15.30;9.10;;;;;;;37.86;22.10;99900.70;107785;1257;60671;-68
2023/09/14 08:54:25;;;;;;;18.30;8.80;;;;;;;37.93;22.07;99902.59;107651;1262;63840;-68
2023/09/14 08:56:52;;;;;;;18.20;9.70;;;;;;;38.10;22.22;99902.81;107687;1256;61664;-68
2023/09/14 08:59:19;;;;;;;18.30;10.40;;;;;;;37.98;22.23;99905.30;107680;1256;62753;-68
2023/09/14 09:01:48;;;;;;;35.10;11.30;;;;;;;37.76;22.55;99902.84;107678;1256;60476;-68
2023/09/14 09:04:14;;;;;;;16.60;10.50;;;;;;;37.81;22.59;99905.02;107860;1257;60364;-68
2023/09/14 09:06:42;;;;;;;21.40;12.20;;;;;;;38.01;22.44;99902.91;107698;1256;65065;-68
2023/09/14 09:09:10;;;;;;;19.60;9.00;;;;;;;38.23;22.46;99902.21;107842;1256;61575;-68
2023/09/14 09:11:37;;;;;;;17.40;8.00;;;;;;;38.29;22.16;99905.34;107837;1256;64138;-68
2023/09/14 09:14:04;;;;;;;16.90;7.90;;;;;;;38.43;22.02;99901.30;107812;1257;60383;-68
2023/09/14 09:16:31;;;;;;;18.80;6.90;;;;;;;38.33;22.11;99897.58;107884;1256;59451;-68
2023/09/14 09:19:06;;;;;;;17.40;7.20;;;;;;;37.95;22.49;99894.19;107801;1256;65380;-68
2023/09/14 09:21:36;;;;;;;13.80;7.80;;;;;;;37.75;22.75;99888.64;107681;1256;61748;-68
2023/09/14 09:24:13;;;;;;;14.00;7.30;;;;;;;37.71;22.81;99886.36;107770;1257;64050;-68
2023/09/14 09:26:40;;;;;;;15.60;7.40;;;;;;;37.62;22.90;99890.48;107750;1256;60416;-68
2023/09/14 09:29:15;;;;;;;15.30;7.30;;;;;;;37.48;22.88;99888.67;107681;1257;60003;-68
2023/09/14 09:31:46;;;;;;;19.40;7.60;;;;;;;37.64;22.71;99892.11;107787;1260;65037;-67
2023/09/14 09:34:13;;;;;;;16.60;7.90;;;;;;;37.80;22.66;99893.30;107791;1256;61827;-68
2023/09/14 09:36:40;;;;;;;14.80;7.60;;;;;;;38.01;22.40;99893.88;107819;1256;64139;-67
2023/09/14 09:39:06;;;;;;;14.90;7.80;;;;;;;37.92;22.48;99890.81;107651;1257;60455;-68
2023/09/14 09:41:34;;;;;;;18.30;7.10;;;;;;;38.05;22.29;99887.25;107732;1262;60311;-68
2023/09/14 09:44:09;;;;;;;14.20;8.10;;;;;;;38.13;22.30;99884.14;107705;1256;65291;-68
2023/09/14 09:46:36;;;;;;;43.00;9.10;;;;;;;38.27;22.12;99886.10;107831;1257;61799;-68
2023/09/14 09:49:04;;;;;;;18.60;6.90;;;;;;;38.31;22.15;99887.68;107673;1256;64082;-67
2023/09/14 09:51:34;;;;;;;15.50;7.00;;;;;;;38.41;22.05;99889.27;107765;1256;60297;-69
2023/09/14 09:54:03;;;;;;;12.10;6.60;;;;;;;38.55;21.66;99884.38;107657;1257;60302;-68
2023/09/14 09:56:34;;;;;;;14.00;6.80;;;;;;;38.64;21.73;99886.34;107815;1256;65399;-68
2023/09/14 09:59:02;;;;;;;15.60;6.80;;;;;;;38.33;22.01;99889.42;107830;1260;60263;-68
2023/09/14 10:01:30;;;;;;;17.00;6.10;;;;;;;38.41;21.94;99886.90;107759;1256;64172;-68
2023/09/14 10:03:59;;;;;;;17.90;7.00;;;;;;;37.69;22.37;99889.96;107794;1256;59470;-68
2023/09/14 10:06:49;;;;;;;12.20;6.40;;;;;;;37.20;22.72;99885.66;107804;1256;60542;-68
2023/09/14 10:09:16;;;;;;;13.50;6.20;;;;;;;36.95;23.21;99886.56;107875;1256;64987;-67
2023/09/14 10:11:43;;;;;;;12.20;6.60;;;;;;;37.05;23.26;99878.48;107720;1256;61625;-67
2023/09/14 10:14:13;;;;;;;14.70;6.90;;;;;;;37.44;22.73;99874.30;107856;1256;64066;-68
2023/09/14 10:16:41;;;;;;;15.20;6.60;;;;;;;37.78;22.41;99873.05;107784;1256;60348;-68
2023/09/14 10:19:08;;;;;;;26.30;7.00;;;;;;;37.91;22.38;99868.98;107799;1260;60342;-68
2023/09/14 10:21:36;;;;;;;12.60;6.00;;;;;;;37.87;22.37;99867.06;107772;1256;65082;-67
2023/09/14 10:24:06;;;;;;;15.80;6.70;;;;;;;37.67;22.61;99868.95;107845;1256;61535;-67
2023/09/14 10:26:36;;;;;;;11.40;5.80;;;;;;;38.00;22.43;99863.08;107719;1257;64072;-68
2023/09/14 10:29:07;;;;;;;13.10;7.00;;;;;;;38.22;22.31;99860.44;107784;1260;60345;-68
2023/09/14 10:31:34;;;;;;;16.60;6.30;;;;;;;38.40;21.97;99860.19;107829;1256;59303;-68
2023/09/14 10:34:05;;;;;;;21.10;7.20;;;;;;;38.00;22.33;99866.38;107799;1256;65030;-68
2023/09/14 10:36:32;;;;;;;11.90;6.40;;;;;;;37.73;22.61;99869.02;107547;1256;61573;-68
2023/09/14 10:38:59;;;;;;;20.00;6.40;;;;;;;37.94;22.62;99868.44;107726;1256;63886;-68
2023/09/14 10:41:27;;;;;;;14.80;6.90;;;;;;;37.92;22.58;99860.42;107744;1256;60464;-66
2023/09/14 10:43:54;;;;;;;16.60;6.50;;;;;;;37.80;22.47;99859.73;107766;1258;60373;-67
2023/09/14 10:46:28;;;;;;;15.20;6.90;;;;;;;37.81;22.58;99856.66;107556;1256;65289;-67
2023/09/14 10:48:56;;;;;;;14.40;6.40;;;;;;;37.78;22.51;99859.85;107807;1256;61755;-68
2023/09/14 10:51:23;;;;;;;14.50;5.90;;;;;;;37.77;22.29;99856.21;107785;1256;71835;-69
2023/09/14 10:53:53;;;;;;;22.40;6.20;;;;;;;37.97;22.27;99852.03;107690;1258;60270;-68
2023/09/14 10:56:30;;;;;;;16.90;6.00;;;;;;;37.79;22.52;99851.25;107769;1256;60373;-68
2023/09/14 10:58:57;;;;;;;14.10;5.60;;;;;;;37.81;22.67;99845.95;107797;1257;65257;-67
2023/09/14 11:01:28;;;;;;;14.40;5.80;;;;;;;37.34;22.69;99852.43;107672;1256;61439;-67
2023/09/14 11:04:17;;;;;;;11.70;5.70;;;;;;;37.16;22.78;99850.14;107672;1257;63853;-67
2023/09/14 11:06:52;;;;;;;13.10;5.30;;;;;;;37.19;22.82;99850.58;107733;1256;60315;-67
2023/09/14 11:09:23;;;;;;;10.50;5.10;;;;;;;36.86;22.88;99847.02;107812;1256;60400;-68
2023/09/14 11:11:51;;;;;;;17.10;5.40;;;;;;;36.83;23.09;99839.42;107824;1256;65119;-68
2023/09/14 11:14:24;;;;;;;13.60;6.10;;;;;;;37.02;23.09;99838.19;107734;1256;61683;-67
2023/09/14 11:16:53;;;;;;;12.20;4.80;;;;;;;37.26;22.72;99834.94;107833;1256;64201;-68
2023/09/14 11:19:30;;;;;;;7.50;4.60;;;;;;;37.43;22.67;99838.52;107824;1256;59131;-68
2023/09/14 11:22:16;;;;;;;8.50;5.00;;;;;;;37.37;22.92;99839.36;107800;1260;60441;-66
2023/09/14 11:24:45;;;;;;;11.20;5.60;;;;;;;37.27;23.14;99837.81;107730;1256;65202;-69
2023/09/14 11:27:19;;;;;;;10.60;5.20;;;;;;;37.02;23.17;99837.95;107809;1256;61752;-66
2023/09/14 11:29:52;;;;;;;14.80;5.80;;;;;;;36.94;23.10;99832.79;107790;1256;63907;-68
2023/09/14 11:32:26;;;;;;;9.90;5.60;;;;;;;37.29;23.13;99836.83;107644;1256;60438;-68
2023/09/14 11:34:56;;;;;;;13.40;5.70;;;;;;;37.63;22.72;99832.06;107691;1256;60518;-68
2023/09/14 11:37:24;;;;;;;11.20;5.80;;;;;;;37.63;22.54;99827.60;107849;1256;65538;-67
2023/09/14 11:39:55;;;;;;;16.30;6.40;;;;;;;37.73;22.85;99821.98;107617;1256;61812;-68
2023/09/14 11:42:26;;;;;;;15.10;5.80;;;;;;;37.89;22.62;99822.65;107806;1257;64979;-67
2023/09/14 11:45:00;;;;;;;18.40;6.60;;;;;;;37.83;22.51;99820.30;107849;1256;59594;-67
2023/09/14 11:47:32;;;;;;;12.50;6.10;;;;;;;37.90;22.53;99813.11;107853;1256;59259;-68
2023/09/14 11:50:07;;;;;;;16.80;5.70;;;;;;;37.82;22.65;99815.25;107539;1256;65320;-68
2023/09/14 11:52:35;;;;;;;11.80;5.60;;;;;;;37.60;22.72;99807.69;107771;1256;61809;-68
2023/09/14 11:55:02;;;;;;;11.80;6.30;;;;;;;37.76;22.65;99804.23;107786;1256;64047;-67
2023/09/14 11:57:29;;;;;;;12.20;5.50;;;;;;;38.01;22.57;99806.19;107770;1256;60336;-67
2023/09/14 11:59:56;;;;;;;13.70;6.10;;;;;;;37.88;22.61;99805.75;107803;1256;60339;-68
2023/09/14 12:02:23;;;;;;;9.10;5.20;;;;;;;37.78;22.61;99804.19;107801;1256;65054;-68
2023/09/14 12:04:50;;;;;;;16.90;6.00;;;;;;;37.55;22.87;99803.69;107797;1260;61514;-67